createdAt,value
2023-05-10T00:01:32.508Z,100528.84
2023-05-10T00:04:36.982Z,100517.88
2023-05-10T00:07:39.014Z,100507.84
2023-05-10T00:10:43.586Z,100514.03
2023-05-10T00:13:45.769Z,100523.19
2023-05-10T00:16:48.139Z,100518.31
2023-05-10T00:19:50.252Z,100511.91
2023-05-10T00:22:52.577Z,100519.25
2023-05-10T00:25:54.526Z,100512.72
2023-05-10T00:28:57.828Z,100518.63
2023-05-10T00:32:00.032Z,100517.31
2023-05-10T00:35:02.478Z,100504.81
2023-05-10T00:38:04.642Z,100508.22
2023-05-10T00:41:07.578Z,100503.72
2023-05-10T00:44:10.191Z,100502.47
2023-05-10T00:47:12.748Z,100510.59
2023-05-10T00:50:15.644Z,100503.12
2023-05-10T00:53:18.879Z,100511.63
2023-05-10T00:56:23.931Z,100501.03
2023-05-10T00:59:26.844Z,100507.34
2023-05-10T01:02:29.667Z,100503.03
2023-05-10T01:05:32.887Z,100499.69
2023-05-10T01:08:35.081Z,100495.94
2023-05-10T01:11:39.104Z,100503.34
2023-05-10T01:14:41.364Z,100501.13
2023-05-10T01:17:45.765Z,100493.75
2023-05-10T01:20:49.873Z,100498.91
2023-05-10T01:24:05.006Z,100495.03
2023-05-10T01:27:10.398Z,100499.13
2023-05-10T01:30:16.001Z,100492.06
2023-05-10T01:33:29.866Z,100494.31
2023-05-10T01:36:32.147Z,100487.38
2023-05-10T01:39:55.431Z,100487.44
2023-05-10T01:43:02.411Z,100493.75
2023-05-10T01:46:14.449Z,100487.66
2023-05-10T01:49:22.357Z,100490.81
2023-05-10T01:52:28.065Z,100491.84
2023-05-10T01:55:33.116Z,100490.81
2023-05-10T01:58:39.422Z,100487.34
2023-05-10T02:01:43.733Z,100486.50
2023-05-10T02:04:47.322Z,100484.59
2023-05-10T02:07:50.346Z,100477.72
2023-05-10T02:10:55.712Z,100475.28
2023-05-10T02:13:58.251Z,100467.31
2023-05-10T02:17:02.991Z,100466.31
2023-05-10T02:20:07.345Z,100464.28
2023-05-10T02:23:10.740Z,100475.62
2023-05-10T02:26:14.453Z,100463.31
2023-05-10T02:29:19.262Z,100465.94
2023-05-10T02:32:22.544Z,100466.06
2023-05-10T02:35:27.039Z,100466.19
2023-05-10T02:38:29.326Z,100463.91
2023-05-10T02:41:33.567Z,100470.59
2023-05-10T02:44:37.343Z,100467.94
2023-05-10T02:47:39.934Z,100464.97
2023-05-10T02:50:44.050Z,100459.62
2023-05-10T02:53:47.979Z,100467.87
2023-05-10T02:56:56.325Z,100462.16
2023-05-10T02:59:59.537Z,100458.06
2023-05-10T03:03:02.389Z,100468.75
2023-05-10T03:06:05.290Z,100469.72
2023-05-10T03:09:08.781Z,100472.34
2023-05-10T03:12:24.740Z,100466.88
2023-05-10T03:15:36.485Z,100466.38
2023-05-10T03:18:48.070Z,100470.47
2023-05-10T03:21:52.284Z,100468.72
2023-05-10T03:24:57.625Z,100469.25
2023-05-10T03:28:02.355Z,100468.50
2023-05-10T03:31:06.344Z,100472.19
2023-05-10T03:34:09.219Z,100468.34
2023-05-10T03:37:11.700Z,100461.56
2023-05-10T03:40:14.180Z,100471.88
2023-05-10T03:43:16.890Z,100476.63
2023-05-10T03:46:19.085Z,100474.81
2023-05-10T03:49:22.087Z,100464.94
2023-05-10T03:52:24.204Z,100474.09
2023-05-10T03:55:26.666Z,100470.09
2023-05-10T03:58:29.060Z,100468.22
2023-05-10T04:01:31.377Z,100466.81
2023-05-10T04:04:33.703Z,100470.94
2023-05-10T04:07:35.693Z,100468.47
2023-05-10T04:10:38.493Z,100467.03
2023-05-10T04:13:40.844Z,100461.84
2023-05-10T04:16:43.532Z,100466.50
2023-05-10T04:19:45.629Z,100460.19
2023-05-10T04:22:47.870Z,100463.13
2023-05-10T04:25:49.949Z,100463.72
2023-05-10T04:28:52.360Z,100463.44
2023-05-10T04:31:54.606Z,100472.13
2023-05-10T04:34:56.929Z,100474.09
2023-05-10T04:37:58.877Z,100472.50
2023-05-10T04:41:04.730Z,100475.91
2023-05-10T04:44:07.210Z,100485.28
2023-05-10T04:47:12.510Z,100482.44
2023-05-10T04:50:14.954Z,100475.59
2023-05-10T04:53:17.364Z,100483.47
2023-05-10T04:56:19.413Z,100479.94
2023-05-10T04:59:21.653Z,100478.56
2023-05-10T05:02:24.970Z,100485.03
2023-05-10T05:05:27.312Z,100488.31
2023-05-10T05:08:29.617Z,100483.25
2023-05-10T05:11:32.089Z,100483.28
2023-05-10T05:14:34.145Z,100479.75
2023-05-10T05:17:36.852Z,100485.69
2023-05-10T05:20:38.858Z,100484.44
2023-05-10T05:23:41.305Z,100480.06
2023-05-10T05:26:43.412Z,100485.38
2023-05-10T05:29:46.020Z,100481.31
2023-05-10T05:32:48.214Z,100494.31
2023-05-10T05:35:51.827Z,100495.59
2023-05-10T05:38:54.004Z,100490.22
2023-05-10T05:41:56.240Z,100499.34
2023-05-10T05:44:58.791Z,100504.69
2023-05-10T05:48:01.309Z,100508.28
2023-05-10T05:51:07.095Z,100513.47
2023-05-10T05:54:10.245Z,100521.69
2023-05-10T05:57:12.483Z,100513.22
2023-05-10T06:00:15.082Z,100513.19
2023-05-10T06:03:17.303Z,100517.00
2023-05-10T06:06:19.874Z,100509.59
2023-05-10T06:09:21.996Z,100515.94
2023-05-10T06:12:24.456Z,100512.38
2023-05-10T06:15:27.384Z,100522.19
2023-05-10T06:18:29.644Z,100516.66
2023-05-10T06:21:31.695Z,100522.09
2023-05-10T06:24:34.092Z,100523.97
2023-05-10T06:27:36.176Z,100528.44
2023-05-10T06:30:39.109Z,100530.28
2023-05-10T06:33:41.633Z,100534.88
2023-05-10T06:36:44.006Z,100532.88
2023-05-10T06:39:46.165Z,100535.37
2023-05-10T06:42:49.082Z,100529.06
2023-05-10T06:45:51.225Z,100533.34
2023-05-10T06:48:53.710Z,100535.34
2023-05-10T06:51:56.768Z,100512.53
2023-05-10T06:54:59.190Z,100524.09
2023-05-10T06:58:01.173Z,100519.13
2023-05-10T07:01:04.261Z,100514.84
2023-05-10T07:04:08.368Z,100524.34
2023-05-10T07:07:10.649Z,100522.72
2023-05-10T07:10:12.676Z,100519.66
2023-05-10T07:13:15.191Z,100516.31
2023-05-10T07:16:17.594Z,100506.69
2023-05-10T07:19:20.496Z,100514.91
2023-05-10T07:22:22.472Z,100508.37
2023-05-10T07:25:25.122Z,100515.03
2023-05-10T07:28:27.152Z,100511.72
2023-05-10T07:31:29.757Z,100508.47
2023-05-10T07:34:32.723Z,100506.06
2023-05-10T07:37:35.023Z,100500.31
2023-05-10T07:40:37.350Z,100505.84
2023-05-10T07:43:39.641Z,100500.47
2023-05-10T07:46:41.725Z,100498.03
2023-05-10T07:49:44.474Z,100507.84
2023-05-10T07:52:46.486Z,100498.84
2023-05-10T07:55:52.748Z,100504.41
2023-05-10T07:58:55.249Z,100498.22
2023-05-10T08:01:57.655Z,100502.63
2023-05-10T08:04:59.942Z,100500.19
2023-05-10T08:08:02.064Z,100508.94
2023-05-10T08:11:04.816Z,100499.13
2023-05-10T08:14:07.015Z,100502.03
2023-05-10T08:17:09.561Z,100496.91
2023-05-10T08:20:13.730Z,100505.78
2023-05-10T08:23:16.485Z,100502.09
2023-05-10T08:26:18.490Z,100493.44
2023-05-10T08:29:20.942Z,100492.94
2023-05-10T08:32:23.025Z,100498.75
2023-05-10T08:35:25.709Z,100494.16
2023-05-10T08:38:28.095Z,100499.84
2023-05-10T08:41:31.005Z,100483.06
2023-05-10T08:44:33.430Z,100499.81
2023-05-10T08:47:37.060Z,100486.19
2023-05-10T08:50:42.882Z,100481.53
2023-05-10T08:53:45.789Z,100485.94
2023-05-10T08:56:49.836Z,100495.19
2023-05-10T08:59:52.912Z,100486.25
2023-05-10T09:02:55.235Z,100485.72
2023-05-10T09:05:58.400Z,100489.03
2023-05-10T09:09:00.959Z,100497.13
2023-05-10T09:12:03.277Z,100494.06
2023-05-10T09:15:07.053Z,100493.06
2023-05-10T09:18:09.563Z,100484.97
2023-05-10T09:21:11.769Z,100474.94
2023-05-10T09:24:14.009Z,100485.69
2023-05-10T09:27:16.023Z,100474.91
2023-05-10T09:30:23.963Z,100472.50
2023-05-10T09:33:26.338Z,100478.88
2023-05-10T09:36:28.885Z,100473.91
2023-05-10T09:39:35.697Z,100473.28
2023-05-10T09:42:41.827Z,100471.31
2023-05-10T09:45:43.807Z,100480.31
2023-05-10T09:48:47.344Z,100474.28
2023-05-10T09:52:00.372Z,100472.31
2023-05-10T09:55:03.612Z,100481.72
2023-05-10T09:58:10.365Z,100465.56
2023-05-10T10:01:15.376Z,100464.81
2023-05-10T10:04:17.827Z,100477.41
2023-05-10T10:07:23.356Z,100461.53
2023-05-10T10:10:26.629Z,100458.63
2023-05-10T10:13:28.641Z,100445.12
2023-05-10T10:16:31.585Z,100447.63
2023-05-10T10:19:37.927Z,100460.59
2023-05-10T10:22:40.732Z,100449.56
2023-05-10T10:25:43.254Z,100446.75
2023-05-10T10:28:46.997Z,100434.91
2023-05-10T10:32:00.149Z,100438.66
2023-05-10T10:35:10.440Z,100435.50
2023-05-10T10:38:13.819Z,100428.22
2023-05-10T10:41:30.074Z,100431.25
2023-05-10T10:44:33.035Z,100428.41
2023-05-10T10:47:37.917Z,100429.72
2023-05-10T10:50:49.598Z,100422.47
2023-05-10T10:53:52.551Z,100420.16
2023-05-10T10:57:11.982Z,100426.87
2023-05-10T11:00:29.123Z,100430.13
2023-05-10T11:03:32.433Z,100410.47
2023-05-10T11:06:36.509Z,100409.72
2023-05-10T11:09:43.693Z,100414.88
2023-05-10T11:12:55.180Z,100412.47
2023-05-10T11:16:11.091Z,100401.91
2023-05-10T11:19:17.743Z,100390.94
2023-05-10T11:22:22.430Z,100393.28
2023-05-10T11:25:27.756Z,100384.34
2023-05-10T11:28:31.326Z,100393.78
2023-05-10T11:31:38.714Z,100387.78
2023-05-10T11:34:42.689Z,100386.09
2023-05-10T11:37:49.174Z,100376.72
2023-05-10T11:40:52.717Z,100382.44
2023-05-10T11:43:55.683Z,100368.78
2023-05-10T11:46:59.586Z,100388.03
2023-05-10T11:50:02.472Z,100373.41
2023-05-10T11:53:05.209Z,100377.09
2023-05-10T11:56:08.478Z,100369.78
2023-05-10T11:59:11.096Z,100372.91
2023-05-10T12:02:16.611Z,100380.44
2023-05-10T12:05:19.070Z,100369.69
2023-05-10T12:08:22.421Z,100376.31
2023-05-10T12:11:28.649Z,100363.53
2023-05-10T12:14:34.874Z,100363.69
2023-05-10T12:17:38.195Z,100370.84
2023-05-10T12:20:41.501Z,100378.47
2023-05-10T12:23:46.114Z,100374.25
2023-05-10T12:26:54.398Z,100371.75
2023-05-10T12:30:00.907Z,100355.63
2023-05-10T12:33:08.290Z,100366.97
2023-05-10T12:36:11.621Z,100360.41
2023-05-10T12:39:13.680Z,100351.50
2023-05-10T12:42:15.993Z,100347.31
2023-05-10T12:45:18.667Z,100347.38
2023-05-10T12:48:21.240Z,100342.22
2023-05-10T12:51:23.720Z,100346.03
2023-05-10T12:54:26.156Z,100341.84
2023-05-10T12:57:28.757Z,100348.97
2023-05-10T13:00:30.984Z,100340.31
2023-05-10T13:03:33.123Z,100328.28
2023-05-10T13:06:36.096Z,100328.47
2023-05-10T13:09:38.042Z,100324.66
2023-05-10T13:12:40.350Z,100318.69
2023-05-10T13:15:42.362Z,100319.69
2023-05-10T13:18:44.712Z,100317.34
2023-05-10T13:21:46.764Z,100297.38
2023-05-10T13:24:49.047Z,100296.03
2023-05-10T13:27:51.132Z,100301.22
2023-05-10T13:30:53.397Z,100295.34
2023-05-10T13:33:55.507Z,100288.19
2023-05-10T13:36:58.169Z,100288.28
2023-05-10T13:40:00.156Z,100285.59
2023-05-10T13:43:02.956Z,100295.25
2023-05-10T13:46:05.018Z,100298.81
2023-05-10T13:49:07.441Z,100278.75
2023-05-10T13:52:10.933Z,100279.25
2023-05-10T13:55:14.160Z,100282.25
2023-05-10T13:58:16.129Z,100283.09
2023-05-10T14:01:18.442Z,100274.94
2023-05-10T14:04:20.729Z,100262.12
2023-05-10T14:07:22.686Z,100269.50
2023-05-10T14:10:24.954Z,100266.09
2023-05-10T14:13:27.201Z,100273.88
2023-05-10T14:16:29.726Z,100255.44
2023-05-10T14:19:33.527Z,100246.22
2023-05-10T14:22:36.307Z,100255.47
2023-05-10T14:25:39.035Z,100246.16
2023-05-10T14:28:41.673Z,100239.50
2023-05-10T14:31:44.065Z,100247.84
2023-05-10T14:34:46.621Z,100242.50
2023-05-10T14:37:48.663Z,100241.34
2023-05-10T14:40:54.097Z,100247.97
2023-05-10T14:43:56.240Z,100237.00
2023-05-10T14:46:58.471Z,100236.03
2023-05-10T14:50:08.250Z,100246.87
2023-05-10T14:53:10.749Z,100238.84
2023-05-10T14:56:12.763Z,100230.72
2023-05-10T14:59:15.210Z,100234.72
2023-05-10T15:02:17.693Z,100239.72
2023-05-10T15:05:20.778Z,100236.72
2023-05-10T15:08:23.085Z,100229.53
2023-05-10T15:11:25.319Z,100230.37
2023-05-10T15:14:27.273Z,100239.88
2023-05-10T15:17:29.492Z,100234.66
2023-05-10T15:20:31.471Z,100231.84
2023-05-10T15:23:33.770Z,100235.91
2023-05-10T15:26:35.721Z,100240.37
2023-05-10T15:29:37.957Z,100241.47
2023-05-10T15:32:41.031Z,100243.47
2023-05-10T15:35:43.288Z,100240.50
2023-05-10T15:38:45.219Z,100248.56
2023-05-10T15:41:48.087Z,100238.25
2023-05-10T15:44:51.180Z,100236.91
2023-05-10T15:47:53.430Z,100232.56
2023-05-10T15:50:56.826Z,100230.94
2023-05-10T15:54:06.939Z,100234.94
2023-05-10T15:57:09.970Z,100235.06
2023-05-10T16:00:13.029Z,100227.72
2023-05-10T16:03:14.886Z,100234.00
2023-05-10T16:06:17.412Z,100234.94
2023-05-10T16:09:19.392Z,100236.16
2023-05-10T16:12:21.816Z,100236.47
2023-05-10T16:15:23.776Z,100238.06
2023-05-10T16:18:26.273Z,100241.31
2023-05-10T16:21:29.770Z,100237.31
2023-05-10T16:24:32.098Z,100233.22
2023-05-10T16:27:34.077Z,100238.88
2023-05-10T16:30:36.426Z,100235.56
2023-05-10T16:33:38.437Z,100233.97
2023-05-10T16:36:41.107Z,100235.88
2023-05-10T16:39:43.096Z,100240.97
2023-05-10T16:42:45.419Z,100235.97
2023-05-10T16:45:47.404Z,100243.69
2023-05-10T16:48:49.704Z,100247.28
2023-05-10T16:51:51.687Z,100244.72
2023-05-10T16:54:57.166Z,100248.81
2023-05-10T16:58:00.876Z,100241.19
2023-05-10T17:01:03.409Z,100234.69
2023-05-10T17:04:05.653Z,100243.69
2023-05-10T17:07:08.682Z,100251.63
2023-05-10T17:10:11.059Z,100260.44
2023-05-10T17:13:13.306Z,100257.63
2023-05-10T17:16:15.333Z,100253.34
2023-05-10T17:19:17.647Z,100262.06
2023-05-10T17:22:19.750Z,100259.47
2023-05-10T17:25:22.073Z,100268.38
2023-05-10T17:28:24.012Z,100268.91
2023-05-10T17:31:26.748Z,100266.97
2023-05-10T17:34:28.936Z,100265.44
2023-05-10T17:37:32.987Z,100272.31
2023-05-10T17:40:34.983Z,100265.75
2023-05-10T17:43:37.251Z,100279.06
2023-05-10T17:46:39.386Z,100268.34
2023-05-10T17:49:42.046Z,100274.09
2023-05-10T17:52:44.108Z,100273.41
2023-05-10T17:55:47.048Z,100276.34
2023-05-10T17:58:50.408Z,100277.72
2023-05-10T18:01:52.792Z,100280.94
2023-05-10T18:04:56.743Z,100284.69
2023-05-10T18:08:00.215Z,100277.03
2023-05-10T18:11:02.430Z,100288.47
2023-05-10T18:14:04.664Z,100289.19
2023-05-10T18:17:07.105Z,100292.69
2023-05-10T18:20:09.967Z,100297.56
2023-05-10T18:23:12.861Z,100294.50
2023-05-10T18:26:14.888Z,100297.97
2023-05-10T18:29:17.219Z,100302.41
2023-05-10T18:32:19.172Z,100306.47
2023-05-10T18:35:21.918Z,100311.91
2023-05-10T18:38:24.272Z,100314.53
2023-05-10T18:41:26.932Z,100319.44
2023-05-10T18:44:29.160Z,100315.53
2023-05-10T18:47:31.885Z,100317.56
2023-05-10T18:50:33.820Z,100320.94
2023-05-10T18:53:36.665Z,100323.84
2023-05-10T18:56:44.342Z,100334.25
2023-05-10T18:59:46.766Z,100331.06
2023-05-10T19:02:48.903Z,100337.59
2023-05-10T19:05:51.371Z,100339.09
2023-05-10T19:08:53.490Z,100349.56
2023-05-10T19:11:56.030Z,100340.09
2023-05-10T19:14:57.957Z,100341.09
2023-05-10T19:18:00.247Z,100346.81
2023-05-10T19:21:04.526Z,100343.19
2023-05-10T19:24:06.993Z,100346.53
2023-05-10T19:27:09.199Z,100348.22
2023-05-10T19:30:11.818Z,100347.91
2023-05-10T19:33:13.804Z,100347.88
2023-05-10T19:36:16.144Z,100342.94
2023-05-10T19:39:18.160Z,100343.94
2023-05-10T19:42:20.512Z,100342.91
2023-05-10T19:45:22.815Z,100347.16
2023-05-10T19:48:25.497Z,100353.53
2023-05-10T19:51:27.561Z,100346.38
2023-05-10T19:54:29.843Z,100343.75
2023-05-10T19:57:31.796Z,100338.47
2023-05-10T20:00:34.221Z,100344.75
2023-05-10T20:03:36.567Z,100348.50
2023-05-10T20:06:38.661Z,100331.78
2023-05-10T20:09:42.465Z,100339.81
2023-05-10T20:12:52.491Z,100338.72
2023-05-10T20:15:55.847Z,100341.91
2023-05-10T20:18:57.911Z,100338.63
2023-05-10T20:22:00.241Z,100347.19
2023-05-10T20:25:02.312Z,100343.91
2023-05-10T20:28:05.824Z,100347.34
2023-05-10T20:31:07.963Z,100351.19
2023-05-10T20:34:10.322Z,100347.47
2023-05-10T20:37:12.231Z,100345.50
2023-05-10T20:40:14.474Z,100347.00
2023-05-10T20:43:16.455Z,100342.66
2023-05-10T20:46:18.812Z,100352.97
2023-05-10T20:49:21.031Z,100344.47
2023-05-10T20:52:24.620Z,100344.28
2023-05-10T20:55:26.997Z,100339.78
2023-05-10T20:58:29.329Z,100341.19
2023-05-10T21:01:31.889Z,100347.59
2023-05-10T21:04:34.302Z,100339.41
2023-05-10T21:07:36.447Z,100348.28
2023-05-10T21:10:38.832Z,100344.16
2023-05-10T21:13:40.796Z,100339.00
2023-05-10T21:16:43.350Z,100336.59
2023-05-10T21:19:45.588Z,100338.72
2023-05-10T21:22:47.903Z,100343.62
2023-05-10T21:25:49.891Z,100334.53
2023-05-10T21:28:52.784Z,100341.06
2023-05-10T21:31:54.757Z,100342.72
2023-05-10T21:34:57.171Z,100335.44
2023-05-10T21:37:59.089Z,100340.38
2023-05-10T21:41:01.863Z,100340.12
2023-05-10T21:44:03.946Z,100338.47
2023-05-10T21:47:06.234Z,100337.62
2023-05-10T21:50:10.350Z,100339.56
2023-05-10T21:53:12.617Z,100346.69
2023-05-10T21:56:14.553Z,100341.69
2023-05-10T21:59:18.013Z,100338.81
2023-05-10T22:02:20.178Z,100344.88
2023-05-10T22:05:22.547Z,100345.34
2023-05-10T22:08:24.523Z,100352.44
2023-05-10T22:11:27.426Z,100347.22
2023-05-10T22:14:29.369Z,100349.03
2023-05-10T22:17:31.743Z,100355.47
2023-05-10T22:20:33.750Z,100363.41
2023-05-10T22:23:36.172Z,100367.09
2023-05-10T22:26:38.278Z,100362.66
2023-05-10T22:29:40.588Z,100356.91
2023-05-10T22:32:42.625Z,100363.31
2023-05-10T22:35:44.880Z,100370.13
2023-05-10T22:38:47.075Z,100369.37
2023-05-10T22:41:49.302Z,100365.63
2023-05-10T22:44:51.311Z,100362.16
2023-05-10T22:47:53.687Z,100364.22
2023-05-10T22:50:55.793Z,100370.41
2023-05-10T22:53:58.097Z,100362.41
2023-05-10T22:57:00.136Z,100354.34
2023-05-10T23:00:04.400Z,100367.97
2023-05-10T23:03:06.807Z,100361.94
2023-05-10T23:06:09.121Z,100372.09
2023-05-10T23:09:11.606Z,100365.41
2023-05-10T23:12:13.903Z,100367.56
2023-05-10T23:15:16.011Z,100369.47
2023-05-10T23:18:18.344Z,100373.50
2023-05-10T23:21:20.437Z,100372.09
2023-05-10T23:24:22.858Z,100368.63
2023-05-10T23:27:28.160Z,100370.34
2023-05-10T23:30:30.897Z,100372.87
2023-05-10T23:33:32.908Z,100376.09
2023-05-10T23:36:35.122Z,100374.19
2023-05-10T23:39:37.236Z,100372.87
2023-05-10T23:42:39.558Z,100376.44
2023-05-10T23:45:41.884Z,100375.28
2023-05-10T23:48:44.274Z,100378.84
2023-05-10T23:51:46.393Z,100376.84
2023-05-10T23:54:48.765Z,100380.44
2023-05-10T23:57:51.122Z,100382.09
